Time;durP1;ratioP1;P1;durP2;ratioP2;P2;SDS_P1;SDS_P2;PMS_P1;PMS_P2;Temp;Humidity;BMP_temperature;BMP_pressure;BME280_temperature;BME280_humidity;BME280_pressure;Samples;Min_cycle;Max_cycle;Signal;HPM_P1;HPM_P2
2023/10/05 00:01:29;;;;;;;0.00;0.00;;;;;;;16.07;100.00;102164.84;5092156;28;20048;-47
2023/10/05 00:03:55;;;;;;;0.00;0.00;;;;;;;16.09;100.00;102164.63;5091642;28;20032;-43
2023/10/05 00:06:24;;;;;;;0.00;0.00;;;;;;;16.10;100.00;102166.34;5096168;28;20054;-50
2023/10/05 00:08:52;;;;;;;0.00;0.00;;;;;;;16.11;100.00;102157.13;5112082;28;20035;-47
2023/10/05 00:11:23;;;;;;;0.00;0.00;;;;;;;16.10;100.00;102164.44;5111572;28;20027;-47
2023/10/05 00:13:59;;;;;;;0.00;0.00;;;;;;;16.10;100.00;102166.34;5112165;28;20050;-45
2023/10/05 00:16:36;;;;;;;0.00;0.00;;;;;;;16.10;100.00;102169.06;5111792;28;20020;-45
2023/10/05 00:19:11;;;;;;;0.00;0.00;;;;;;;16.04;100.00;102161.66;5104411;28;20651;-47
2023/10/05 00:21:51;;;;;;;0.00;0.00;;;;;;;15.97;100.00;102158.81;5091048;28;20035;-46
2023/10/05 00:24:30;;;;;;;0.00;0.00;;;;;;;15.96;100.00;102170.72;5104590;28;20437;-49
2023/10/05 00:26:56;;;;;;;0.00;0.00;;;;;;;15.93;100.00;102155.66;5111636;28;20015;-46
2023/10/05 00:29:27;;;;;;;0.00;0.00;;;;;;;16.01;100.00;102168.31;5098138;28;20056;-46
2023/10/05 00:31:53;;;;;;;0.00;0.00;;;;;;;15.96;100.00;102171.56;5091843;28;20377;-43
2023/10/05 00:34:24;;;;;;;0.00;0.00;;;;;;;15.93;100.00;102161.06;5091527;28;20028;-44
2023/10/05 00:36:59;;;;;;;0.00;0.00;;;;;;;15.90;100.00;102168.72;5091722;28;20539;-46
2023/10/05 00:39:26;;;;;;;0.00;0.00;;;;;;;15.85;100.00;102161.16;5091346;28;20027;-48
2023/10/05 00:44:34;;;;;;;;;;;;;;;15.78;100.00;102173.78;5091879;28;20251;-42
2023/10/05 00:47:00;;;;;;;0.00;0.00;;;;;;;15.75;100.00;102171.44;5109774;28;20007;-45
2023/10/05 00:49:29;;;;;;;0.00;0.00;;;;;;;15.82;100.00;102166.94;5111419;28;20051;-46
2023/10/05 00:52:13;;;;;;;0.00;0.00;;;;;;;15.79;100.00;102173.56;5112238;28;20057;-45
2023/10/05 00:54:40;;;;;;;0.00;0.00;;;;;;;15.77;100.00;102163.94;5102354;28;20047;-45
2023/10/05 00:57:09;;;;;;;0.00;0.00;;;;;;;15.78;100.00;102171.06;5108637;28;20590;-48
2023/10/05 00:59:36;;;;;;;0.00;0.00;;;;;;;15.76;100.00;102171.22;5109190;28;20242;-45
2023/10/05 01:02:14;;;;;;;0.00;0.00;;;;;;;15.82;100.00;102160.66;5109975;28;20041;-43
2023/10/05 01:04:53;;;;;;;0.00;0.00;;;;;;;15.84;100.00;102164.88;5110751;27;20080;-47
2023/10/05 01:14:53;;;;;;;0.00;0.00;;;;;;;15.92;100.00;102151.22;5094941;28;20051;-42
2023/10/05 01:17:20;;;;;;;;;;;;;;;15.88;100.00;102139.06;5100295;28;20039;-47
2023/10/05 01:19:46;;;;;;;;;;;;;;;15.86;100.00;102143.00;5096099;28;20045;-50
2023/10/05 01:22:16;;;;;;;0.00;0.00;;;;;;;15.83;100.00;102156.94;5107450;28;19949;-48
2023/10/05 01:24:41;;;;;;;0.00;0.00;;;;;;;15.81;100.00;102151.69;5097238;28;20023;-48
2023/10/05 01:27:08;;;;;;;0.00;0.00;;;;;;;15.78;100.00;102155.63;5104024;28;20385;-46
2023/10/05 01:29:34;;;;;;;0.00;0.00;;;;;;;15.80;100.00;102136.44;5093301;28;20031;-44
2023/10/05 01:31:59;;;;;;;0.00;0.00;;;;;;;15.82;100.00;102147.09;5101555;28;20100;-47
2023/10/05 01:34:24;;;;;;;0.00;0.00;;;;;;;15.85;100.00;102144.88;5095904;28;20081;-49
2023/10/05 01:36:50;;;;;;;0.00;0.00;;;;;;;15.85;100.00;102150.31;5093206;28;20071;-44
2023/10/05 01:39:18;;;;;;;0.00;0.00;;;;;;;15.85;100.00;102150.31;5092464;28;20382;-44
2023/10/05 01:41:45;;;;;;;0.00;0.00;;;;;;;15.90;100.00;102153.28;5109340;28;20436;-46
2023/10/05 01:44:10;;;;;;;0.00;0.00;;;;;;;15.87;100.00;102145.50;5108984;28;20019;-46
2023/10/05 01:46:36;;;;;;;0.00;0.00;;;;;;;15.92;100.00;102147.69;5104495;28;20026;-46
2023/10/05 01:49:01;;;;;;;0.00;0.00;;;;;;;15.90;100.00;102145.13;5098890;28;20032;-45
2023/10/05 01:51:28;;;;;;;0.00;0.00;;;;;;;15.94;100.00;102149.19;5090032;28;20031;-46
2023/10/05 01:54:05;;;;;;;0.00;0.00;;;;;;;15.91;100.00;102151.44;5092773;28;20048;-47
2023/10/05 01:56:32;;;;;;;0.00;0.00;;;;;;;15.86;100.00;102146.53;5110156;28;20036;-45
2023/10/05 01:59:00;;;;;;;0.00;0.00;;;;;;;15.86;100.00;102157.41;5093585;28;20068;-44
2023/10/05 02:01:28;;;;;;;;;;;;;;;15.85;100.00;102146.72;5108385;28;20035;-47
2023/10/05 02:03:56;;;;;;;0.00;0.00;;;;;;;15.85;100.00;102160.28;5111093;28;19912;-44
2023/10/05 02:06:21;;;;;;;;;;;;;;;15.83;100.00;102144.22;5090036;28;20062;-45
2023/10/05 02:08:47;;;;;;;0.00;0.00;;;;;;;15.78;100.00;102155.63;5093956;28;19956;-46
2023/10/05 02:11:23;;;;;;;0.00;0.00;;;;;;;15.76;100.00;102159.53;5106806;28;20320;-44
2023/10/05 02:13:48;;;;;;;0.00;0.00;;;;;;;15.76;100.00;102152.22;5106901;28;20072;-48
2023/10/05 02:16:19;;;;;;;0.00;0.00;;;;;;;15.75;100.00;102141.56;5109616;28;20031;-48
2023/10/05 02:18:45;;;;;;;0.00;0.00;;;;;;;15.73;100.00;102146.34;5109726;28;20279;-46
2023/10/05 02:22:02;;;;;;;0.00;0.00;;;;;;;15.73;100.00;102146.34;5097725;28;20027;-49
2023/10/05 02:24:10;;;;;;;0.00;0.00;;;;;;;15.71;100.00;102138.38;5109005;28;20363;-45
2023/10/05 02:26:37;;;;;;;0.00;0.00;;;;;;;15.68;100.00;102133.28;5110656;28;20034;-46
2023/10/05 02:29:13;;;;;;;0.00;0.00;;;;;;;15.65;100.00;102139.09;5108536;28;20122;-44
2023/10/05 02:32:28;;;;;;;0.00;0.00;;;;;;;15.64;100.00;102136.53;5110042;28;20555;-43
2023/10/05 02:34:59;;;;;;;0.00;0.00;;;;;;;15.59;100.00;102129.81;5109948;28;20384;-46
2023/10/05 02:37:28;;;;;;;0.00;0.00;;;;;;;15.56;100.00;102140.16;5110129;28;20063;-46
2023/10/05 02:39:54;;;;;;;0.00;0.00;;;;;;;15.52;100.00;102139.69;5110623;28;20130;-48
2023/10/05 02:42:22;;;;;;;0.00;0.00;;;;;;;15.51;100.00;102132.59;5110376;28;20164;-47
2023/10/05 02:44:49;;;;;;;;;;;;;;;15.50;100.00;102135.47;5104804;28;20032;-46
2023/10/05 02:47:22;;;;;;;0.00;0.00;;;;;;;15.47;100.00;102133.97;5093802;28;19908;-46
2023/10/05 02:49:47;;;;;;;0.00;0.00;;;;;;;15.41;100.00;102136.59;5094150;28;20124;-48
2023/10/05 02:52:15;;;;;;;0.00;0.00;;;;;;;15.37;100.00;102136.09;5093959;28;20545;-49
2023/10/05 02:54:41;;;;;;;;;;;;;;;15.34;100.00;102139.19;5114346;27;20031;-46
2023/10/05 02:57:19;;;;;;;0.00;0.00;;;;;;;15.29;100.00;102126.16;5113729;28;19916;-46
2023/10/05 02:59:46;;;;;;;0.00;0.00;;;;;;;15.26;100.00;102136.53;5113977;27;20071;-46
2023/10/05 03:02:16;;;;;;;0.00;0.00;;;;;;;15.23;100.00;102136.91;5101674;28;20107;-45
2023/10/05 03:04:46;;;;;;;0.00;0.00;;;;;;;15.24;100.00;102131.28;5099888;28;20028;-45
2023/10/05 03:07:16;;;;;;;0.00;0.00;;;;;;;15.25;100.00;102138.41;5111091;28;20043;-47
2023/10/05 03:09:50;;;;;;;0.00;0.00;;;;;;;15.25;100.00;102134.84;5094957;28;20111;-49
2023/10/05 03:12:20;;;;;;;0.00;0.00;;;;;;;15.23;100.00;102134.19;5093626;28;20036;-50
2023/10/05 03:14:45;;;;;;;0.00;0.00;;;;;;;15.23;100.00;102128.75;5093707;28;20021;-44
2023/10/05 03:17:18;;;;;;;0.00;0.00;;;;;;;15.24;100.00;102117.72;5095293;28;20030;-47
2023/10/05 03:19:44;;;;;;;0.00;0.00;;;;;;;15.27;100.00;102119.22;5096812;28;20562;-48
2023/10/05 03:22:12;;;;;;;0.00;0.00;;;;;;;15.32;100.00;102138.50;5105571;28;20113;-49
2023/10/05 03:24:38;;;;;;;0.00;0.00;;;;;;;15.34;100.00;102137.31;5100492;28;20181;-46
2023/10/05 03:27:03;;;;;;;0.00;0.00;;;;;;;15.30;100.00;102130.56;5093580;28;20134;-47
2023/10/05 03:29:35;;;;;;;0.00;0.00;;;;;;;15.28;100.00;102131.78;5111489;27;20509;-46
2023/10/05 03:34:34;;;;;;;0.00;0.00;;;;;;;15.21;100.00;102128.94;5096268;28;20482;-45
2023/10/05 03:37:13;;;;;;;0.00;0.00;;;;;;;15.17;100.00;102121.34;5095240;28;20046;-47
2023/10/05 03:42:23;;;;;;;0.00;0.00;;;;;;;15.10;100.00;102122.06;5102431;28;20473;-44
2023/10/05 03:45:02;;;;;;;0.00;0.00;;;;;;;15.09;100.00;102136.66;5113248;28;20483;-46
2023/10/05 03:47:28;;;;;;;0.00;0.00;;;;;;;15.07;100.00;102129.72;5097122;28;20020;-46
2023/10/05 03:49:56;;;;;;;0.00;0.00;;;;;;;15.05;100.00;102138.03;5113232;28;20026;-44
2023/10/05 03:52:22;;;;;;;0.00;0.00;;;;;;;15.04;100.00;102141.78;5112092;28;20027;-46
2023/10/05 03:54:47;;;;;;;0.00;0.00;;;;;;;15.06;100.00;102139.72;5111543;28;20028;-46
2023/10/05 03:57:13;;;;;;;0.00;0.00;;;;;;;15.08;100.00;102136.81;5112659;28;20016;-46
2023/10/05 03:59:39;;;;;;;0.00;0.00;;;;;;;15.09;100.00;102133.94;5112926;27;20024;-45
2023/10/05 04:02:09;;;;;;;0.00;0.00;;;;;;;15.10;100.00;102134.78;5095455;28;20032;-48
2023/10/05 04:04:41;;;;;;;0.00;0.00;;;;;;;15.08;100.00;102137.66;5092933;28;20036;-50
2023/10/05 04:07:08;;;;;;;0.00;0.00;;;;;;;15.06;100.00;102128.03;5093212;28;20111;-47
2023/10/05 04:09:35;;;;;;;0.00;0.00;;;;;;;15.03;100.00;102123.81;5105561;28;20108;-46
2023/10/05 04:12:03;;;;;;;0.00;0.00;;;;;;;15.05;100.00;102119.03;5092126;28;20032;-49
2023/10/05 04:14:29;;;;;;;0.00;0.00;;;;;;;15.06;100.00;102118.03;5092942;28;20043;-47
2023/10/05 04:16:56;;;;;;;0.00;0.00;;;;;;;15.07;100.00;102121.59;5096088;28;20255;-46
2023/10/05 04:19:22;;;;;;;0.00;0.00;;;;;;;15.02;100.00;102127.53;5112570;27;20066;-48
2023/10/05 04:21:48;;;;;;;0.00;0.00;;;;;;;15.03;100.00;102129.22;5109925;28;20051;-45
2023/10/05 04:24:16;;;;;;;0.00;0.00;;;;;;;14.99;100.00;102127.91;5099855;28;20185;-46
2023/10/05 04:26:45;;;;;;;0.00;0.00;;;;;;;14.97;100.00;102132.66;5103870;28;20050;-49
2023/10/05 04:29:12;;;;;;;0.00;0.00;;;;;;;14.95;100.00;102134.69;5106027;28;20031;-47
2023/10/05 04:31:37;;;;;;;0.00;0.00;;;;;;;14.97;100.00;102129.94;5111740;28;20712;-46
2023/10/05 04:34:13;;;;;;;0.00;0.00;;;;;;;15.00;100.00;102123.31;5111103;28;20164;-45
2023/10/05 04:36:39;;;;;;;0.00;0.00;;;;;;;14.97;100.00;102129.94;5111214;28;20032;-45
2023/10/05 04:39:05;;;;;;;0.00;0.00;;;;;;;15.02;100.00;102122.13;5112075;28;20020;-46
2023/10/05 04:41:33;;;;;;;0.00;0.00;;;;;;;15.06;100.00;102128.03;5099757;28;20088;-48
2023/10/05 04:43:59;;;;;;;0.00;0.00;;;;;;;15.09;100.00;102116.84;5098969;28;20027;-45
2023/10/05 04:46:25;;;;;;;0.00;0.00;;;;;;;15.09;100.00;102125.81;5101035;28;20494;-45
2023/10/05 04:49:07;;;;;;;0.00;0.00;;;;;;;15.09;100.00;102133.94;5094394;28;20068;-45
2023/10/05 04:51:35;;;;;;;0.00;0.00;;;;;;;15.07;100.00;102132.44;5097740;28;20046;-44
2023/10/05 04:54:01;;;;;;;0.00;0.00;;;;;;;15.08;100.00;102137.66;5102329;27;20012;-49
2023/10/05 04:57:22;;;;;;;0.00;0.00;;;;;;;15.06;100.00;102134.31;5097834;28;20066;-43
2023/10/05 05:04:51;;;;;;;0.00;0.00;;;;;;;15.01;100.00;102141.28;5099100;28;20482;-46
2023/10/05 05:07:13;;;;;;;0.00;0.00;;;;;;;14.97;100.00;102138.09;5095496;28;20044;-49
2023/10/05 05:09:41;;;;;;;0.00;0.00;;;;;;;15.00;100.00;102136.88;5109969;28;20099;-49
2023/10/05 05:12:16;;;;;;;0.00;0.00;;;;;;;14.98;100.00;102142.50;5105411;28;20024;-44
2023/10/05 05:14:42;;;;;;;0.00;0.00;;;;;;;15.01;100.00;102146.69;5091146;28;20027;-44
2023/10/05 05:17:24;;;;;;;0.00;0.00;;;;;;;15.00;100.00;102151.28;5094175;28;20539;-47
2023/10/05 05:19:52;;;;;;;0.00;0.00;;;;;;;15.02;100.00;102156.53;5111307;28;20040;-44
2023/10/05 05:22:18;;;;;;;0.00;0.00;;;;;;;15.01;100.00;102162.97;5096114;28;20020;-47
2023/10/05 05:24:44;;;;;;;0.00;0.00;;;;;;;15.00;100.00;102164.84;5091147;28;20031;-50
2023/10/05 05:29:52;;;;;;;0.00;0.00;;;;;;;15.06;100.00;102156.00;5111982;28;20110;-48
2023/10/05 05:32:19;;;;;;;0.00;0.00;;;;;;;15.03;100.00;102150.91;5109340;27;20058;-46
2023/10/05 05:34:45;;;;;;;0.00;0.00;;;;;;;15.01;100.00;102158.41;5113695;27;20028;-47
2023/10/05 05:37:13;;;;;;;0.00;0.00;;;;;;;15.04;100.00;102158.03;5090452;28;20527;-48
2023/10/05 05:39:39;;;;;;;0.00;0.00;;;;;;;15.07;100.00;102149.53;5099081;28;20027;-48
2023/10/05 05:42:15;;;;;;;0.00;0.00;;;;;;;15.10;100.00;102159.19;5110995;28;20031;-49
2023/10/05 05:44:42;;;;;;;0.00;0.00;;;;;;;15.08;100.00;102162.06;5110134;28;20066;-47
2023/10/05 05:47:10;;;;;;;0.00;0.00;;;;;;;15.12;100.00;102163.41;5095030;28;20028;-43
2023/10/05 05:49:42;;;;;;;0.00;0.00;;;;;;;15.14;100.00;102161.38;5095192;28;20040;-48
2023/10/05 05:52:12;;;;;;;0.00;0.00;;;;;;;15.17;100.00;102164.75;5090074;28;20379;-47
2023/10/05 05:54:38;;;;;;;0.00;0.00;;;;;;;15.15;100.00;102160.34;5089521;28;20036;-46
2023/10/05 05:57:07;;;;;;;0.00;0.00;;;;;;;15.10;100.00;102157.31;5090237;28;20020;-43
2023/10/05 05:59:35;;;;;;;0.00;0.00;;;;;;;15.11;100.00;102159.03;5093922;28;20107;-47
2023/10/05 06:02:03;;;;;;;0.00;0.00;;;;;;;15.12;100.00;102155.28;5090880;28;20024;-45
2023/10/05 06:04:32;;;;;;;0.00;0.00;;;;;;;15.15;100.00;102159.50;5089710;28;20114;-47
2023/10/05 06:06:57;;;;;;;0.00;0.00;;;;;;;15.20;100.00;102162.50;5091091;28;20244;-48
2023/10/05 06:09:26;;;;;;;0.00;0.00;;;;;;;15.22;100.00;102162.31;5091397;28;20050;-45
2023/10/05 06:11:52;;;;;;;0.15;0.00;;;;;;;15.22;100.00;102165.88;5100531;28;20045;-48
2023/10/05 06:14:17;;;;;;;0.00;0.00;;;;;;;15.24;100.00;102157.56;5093104;28;20559;-48
2023/10/05 06:16:43;;;;;;;0.00;0.00;;;;;;;15.26;100.00;102172.63;5094223;28;20429;-46
2023/10/05 06:19:08;;;;;;;0.00;0.00;;;;;;;15.31;100.00;102169.38;5093971;28;20035;-46
2023/10/05 06:21:34;;;;;;;0.00;0.00;;;;;;;15.30;100.00;102176.69;5108827;28;20055;-46
2023/10/05 06:23:59;;;;;;;0.00;0.00;;;;;;;15.31;100.00;102174.81;5108910;28;20058;-46
2023/10/05 06:26:24;;;;;;;0.00;0.00;;;;;;;15.32;100.00;102176.47;5095006;28;20401;-48
2023/10/05 06:28:50;;;;;;;0.00;0.00;;;;;;;15.34;100.00;102179.88;5103493;28;20551;-44
2023/10/05 06:31:16;;;;;;;0.00;0.00;;;;;;;15.35;100.00;102189.72;5114343;28;20414;-48
2023/10/05 06:33:43;;;;;;;0.00;0.00;;;;;;;15.37;100.00;102190.34;5114762;28;20615;-46
2023/10/05 06:36:09;;;;;;;0.00;0.00;;;;;;;15.42;100.00;102198.78;5104154;28;20030;-48
2023/10/05 06:38:35;;;;;;;0.00;0.00;;;;;;;15.45;100.00;102193.00;5102849;27;20385;-45
2023/10/05 06:41:00;;;;;;;0.00;0.00;;;;;;;15.42;100.00;102189.81;5095401;28;20028;-50
2023/10/05 06:43:26;;;;;;;0.00;0.00;;;;;;;15.43;100.00;102195.06;5102402;28;20051;-48
2023/10/05 06:45:52;;;;;;;0.00;0.00;;;;;;;15.39;100.00;102199.16;5100610;28;20157;-47
2023/10/05 06:48:18;;;;;;;0.00;0.00;;;;;;;15.41;100.00;102202.53;5095207;28;20430;-48
2023/10/05 06:50:43;;;;;;;0.00;0.00;;;;;;;15.42;100.00;102214.22;5093007;28;20066;-46
2023/10/05 06:53:10;;;;;;;0.00;0.00;;;;;;;15.45;100.00;102209.28;5094406;28;20035;-46
2023/10/05 06:55:36;;;;;;;0.00;0.00;;;;;;;15.54;100.00;102215.50;5098804;28;20158;-46
2023/10/05 06:58:03;;;;;;;0.00;0.00;;;;;;;15.58;100.00;102227.66;5114625;28;20102;-50
2023/10/05 07:00:29;;;;;;;0.00;0.00;;;;;;;15.58;100.00;102222.25;5114870;28;20043;-49
2023/10/05 07:02:55;;;;;;;0.00;0.00;;;;;;;15.62;100.00;102225.47;5115570;28;20020;-47
2023/10/05 07:05:20;;;;;;;0.00;0.00;;;;;;;15.62;100.00;102228.16;5114471;28;20484;-47
2023/10/05 07:07:46;;;;;;;0.00;0.00;;;;;;;15.63;100.00;102238.00;5113796;28;20050;-47
2023/10/05 07:10:14;;;;;;;0.00;0.00;;;;;;;15.62;100.00;102247.16;5113879;28;20436;-48
2023/10/05 07:12:39;;;;;;;;;;;;;;;15.63;100.00;102241.53;5114279;28;20028;-46
2023/10/05 07:15:05;;;;;;;0.00;0.00;;;;;;;15.70;100.00;102253.41;5113658;28;20358;-46
2023/10/05 07:17:31;;;;;;;0.00;0.00;;;;;;;15.68;100.00;102252.69;5113435;28;20110;-49
2023/10/05 07:19:58;;;;;;;0.00;0.00;;;;;;;15.73;100.00;102249.47;5113992;28;20091;-48
2023/10/05 07:22:23;;;;;;;0.00;0.00;;;;;;;15.77;100.00;102245.34;5113700;27;20055;-44
2023/10/05 07:24:49;;;;;;;0.00;0.00;;;;;;;15.80;100.00;102251.28;5113500;28;20354;-49
2023/10/05 07:27:15;;;;;;;0.00;0.00;;;;;;;15.81;100.00;102254.84;5113518;28;20401;-47
2023/10/05 07:29:46;;;;;;;0.00;0.00;;;;;;;15.88;100.00;102257.69;5112854;28;20059;-46
2023/10/05 07:32:13;;;;;;;0.00;0.00;;;;;;;15.92;100.00;102251.69;5113264;28;20497;-45
2023/10/05 07:34:43;;;;;;;0.00;0.00;;;;;;;16.02;100.00;102255.00;5112913;28;20107;-51
2023/10/05 07:37:10;;;;;;;0.00;0.00;;;;;;;16.16;100.00;102255.22;5112021;28;20027;-46
2023/10/05 07:39:37;;;;;;;0.00;0.00;;;;;;;16.26;100.00;102255.78;5113393;28;20038;-45
2023/10/05 07:42:03;;;;;;;0.00;0.00;;;;;;;16.50;100.00;102248.41;5107672;28;20020;-48
2023/10/05 07:44:28;;;;;;;0.00;0.00;;;;;;;16.53;100.00;102262.47;5102697;28;20374;-50
2023/10/05 07:46:54;;;;;;;0.00;0.00;;;;;;;16.70;100.00;102259.59;5107703;28;20030;-48
2023/10/05 07:49:20;;;;;;;0.00;0.00;;;;;;;16.78;100.00;102271.22;5091253;28;20119;-47
2023/10/05 07:51:46;;;;;;;0.00;0.00;;;;;;;16.93;100.00;102270.34;5092384;28;20017;-45
2023/10/05 07:54:11;;;;;;;0.00;0.00;;;;;;;17.13;100.00;102276.91;5092233;28;20577;-45
2023/10/05 07:56:36;;;;;;;0.00;0.00;;;;;;;17.22;100.00;102286.66;5091598;28;20406;-47
2023/10/05 07:59:02;;;;;;;0.00;0.00;;;;;;;17.32;100.00;102283.59;5093752;28;20024;-47
2023/10/05 08:01:28;;;;;;;0.00;0.00;;;;;;;17.45;100.00;102275.59;5103259;28;20108;-48
2023/10/05 08:03:53;;;;;;;0.00;0.00;;;;;;;17.54;100.00;102279.06;5111145;27;20016;-44
2023/10/05 08:06:20;;;;;;;0.00;0.00;;;;;;;17.61;100.00;102277.22;5108610;27;20038;-43
2023/10/05 08:08:47;;;;;;;0.00;0.00;;;;;;;17.57;100.00;102286.00;5107818;28;20028;-43
2023/10/05 08:11:13;;;;;;;0.00;0.00;;;;;;;17.57;100.00;102286.00;5112327;28;20035;-46
2023/10/05 08:13:39;;;;;;;0.00;0.00;;;;;;;17.31;100.00;102293.66;5099867;28;20032;-45
2023/10/05 08:16:07;;;;;;;0.00;0.00;;;;;;;17.29;100.00;102290.28;5100767;27;20016;-43
2023/10/05 08:18:33;;;;;;;0.00;0.00;;;;;;;17.19;100.00;102289.72;5102771;28;20039;-46
2023/10/05 08:20:59;;;;;;;0.00;0.00;;;;;;;17.15;100.00;102304.75;5111490;28;20015;-47
2023/10/05 08:23:24;;;;;;;0.00;0.00;;;;;;;17.11;100.00;102317.03;5111261;28;20059;-47
2023/10/05 08:25:49;;;;;;;0.00;0.00;;;;;;;17.07;100.00;102315.75;5112012;28;20397;-46
2023/10/05 08:28:20;;;;;;;0.00;0.00;;;;;;;17.00;100.00;102312.09;5106621;28;20028;-44
2023/10/05 08:30:57;;;;;;;0.00;0.00;;;;;;;16.98;100.00;102314.16;5102099;28;20514;-42
2023/10/05 08:33:26;;;;;;;0.00;0.00;;;;;;;16.93;100.00;102311.16;5092929;28;20072;-45
2023/10/05 08:35:51;;;;;;;0.00;0.00;;;;;;;16.90;100.00;102320.53;5098736;27;20039;-44
2023/10/05 08:38:17;;;;;;;0.00;0.00;;;;;;;16.89;100.00;102316.13;5101065;28;20058;-48
2023/10/05 08:40:45;;;;;;;0.00;0.00;;;;;;;16.87;100.00;102323.63;5098775;28;20024;-48
2023/10/05 08:43:10;;;;;;;0.00;0.00;;;;;;;16.92;100.00;102331.22;5111759;28;20034;-45
2023/10/05 08:45:47;;;;;;;0.00;0.00;;;;;;;16.89;100.00;102333.28;5111574;28;20054;-44
2023/10/05 08:48:28;;;;;;;0.00;0.00;;;;;;;16.93;100.00;102343.78;5112008;28;20032;-45
2023/10/05 08:50:58;;;;;;;0.00;0.00;;;;;;;16.98;100.00;102342.22;5111709;28;20031;-49
2023/10/05 08:53:24;;;;;;;0.00;0.00;;;;;;;16.99;100.00;102360.22;5111477;28;20123;-46
2023/10/05 08:55:51;;;;;;;0.00;0.00;;;;;;;16.96;100.00;102352.44;5111383;28;20115;-46
2023/10/05 08:58:18;;;;;;;0.00;0.00;;;;;;;16.94;100.00;102361.81;5102122;28;20039;-46
2023/10/05 09:00:48;;;;;;;0.00;0.00;;;;;;;16.95;100.00;102368.94;5116289;27;20051;-46
2023/10/05 09:03:30;;;;;;;0.00;0.00;;;;;;;17.01;100.00;102376.31;5149926;27;20337;-41
2023/10/05 09:06:13;;;;;;;0.00;0.00;;;;;;;17.06;100.00;102360.28;5148677;27;20038;-46
2023/10/05 09:08:53;;;;;;;0.00;0.00;;;;;;;17.08;100.00;102363.66;5149094;27;20034;-44
2023/10/05 09:11:35;;;;;;;0.00;0.00;;;;;;;17.06;100.00;102366.59;5148839;27;20023;-46
2023/10/05 09:14:17;;;;;;;0.00;0.00;;;;;;;17.05;100.00;102366.78;5144696;27;20054;-47
2023/10/05 09:16:45;;;;;;;0.00;0.00;;;;;;;17.05;100.00;102367.63;5140031;27;20492;-49
2023/10/05 09:19:13;;;;;;;;;;;;;;;17.03;100.00;102368.81;5127765;28;20027;-44
2023/10/05 09:21:55;;;;;;;0.00;0.00;;;;;;;16.97;100.00;102373.16;5131736;27;20384;-46
2023/10/05 09:24:24;;;;;;;0.00;0.00;;;;;;;16.97;100.00;102369.59;5139827;27;20050;-47
2023/10/05 09:26:57;;;;;;;0.00;0.00;;;;;;;16.93;100.00;102376.41;5128453;28;20082;-46
2023/10/05 09:29:32;;;;;;;0.00;0.00;;;;;;;16.94;100.00;102378.13;5148513;27;20019;-47
2023/10/05 09:31:59;;;;;;;0.00;0.00;;;;;;;16.99;100.00;102381.13;5148629;27;20052;-48
2023/10/05 09:34:49;;;;;;;0.00;0.00;;;;;;;17.03;100.00;102390.59;5128321;27;20385;-45
2023/10/05 09:37:16;;;;;;;0.00;0.00;;;;;;;17.02;100.00;102383.47;5127978;28;20070;-46
2023/10/05 09:39:44;;;;;;;0.00;0.00;;;;;;;16.98;100.00;102382.16;5127920;28;20180;-44
2023/10/05 09:42:14;;;;;;;0.00;0.00;;;;;;;17.03;100.00;102380.53;5108922;28;20467;-44
2023/10/05 09:44:43;;;;;;;0.00;0.00;;;;;;;17.07;100.00;102384.59;5128042;27;20031;-44
2023/10/05 09:47:12;;;;;;;0.00;0.00;;;;;;;17.17;100.00;102388.91;5126985;27;20083;-45
2023/10/05 09:49:39;;;;;;;0.00;0.00;;;;;;;17.21;100.00;102388.34;5127500;28;20066;-48
2023/10/05 09:52:05;;;;;;;0.00;0.00;;;;;;;17.24;100.00;102390.69;5128128;28;20023;-49
2023/10/05 09:54:31;;;;;;;0.00;0.00;;;;;;;17.23;100.00;102389.00;5103319;28;20031;-44
2023/10/05 09:56:57;;;;;;;0.00;0.00;;;;;;;17.34;100.00;102380.34;5088717;28;20020;-45
2023/10/05 09:59:25;;;;;;;0.00;0.00;;;;;;;17.31;100.00;102380.72;5108057;27;20023;-49
2023/10/05 10:01:50;;;;;;;0.00;0.00;;;;;;;17.36;100.00;102388.34;5125317;28;20485;-49
2023/10/05 10:04:29;;;;;;;0.00;0.00;;;;;;;17.40;100.00;102388.78;5126799;27;20076;-49
2023/10/05 10:07:01;;;;;;;0.00;0.00;;;;;;;17.52;100.00;102381.84;5107219;28;20031;-44
2023/10/05 10:09:27;;;;;;;0.00;0.00;;;;;;;17.64;100.00;102391.22;5124839;27;20110;-44
2023/10/05 10:11:53;;;;;;;0.00;0.00;;;;;;;17.80;100.00;102386.59;5127748;27;20443;-45
2023/10/05 10:14:22;;;;;;;0.00;0.00;;;;;;;17.99;100.00;102385.97;5088043;28;20066;-44
2023/10/05 10:16:53;;;;;;;0.00;0.00;;;;;;;18.12;100.00;102388.84;5118395;27;20075;-45
2023/10/05 10:19:19;;;;;;;0.00;0.00;;;;;;;18.28;100.00;102382.28;5114271;28;20035;-45
2023/10/05 10:22:00;;;;;;;0.00;0.00;;;;;;;18.28;100.00;102384.16;5113519;28;20031;-47
2023/10/05 10:24:28;;;;;;;0.00;0.00;;;;;;;18.34;100.00;102380.66;5112941;28;20080;-47
2023/10/05 10:27:07;;;;;;;0.00;0.00;;;;;;;18.39;100.00;102378.19;5112699;28;20031;-46
2023/10/05 10:29:53;;;;;;;0.00;0.00;;;;;;;18.29;100.00;102378.50;5113002;28;20088;-49
2023/10/05 10:32:21;;;;;;;0.00;0.00;;;;;;;18.32;100.00;102385.44;5113183;28;20485;-44
2023/10/05 10:35:09;;;;;;;0.00;0.00;;;;;;;18.39;100.00;102389.91;5111685;28;20023;-45
2023/10/05 10:37:44;;;;;;;0.00;0.00;;;;;;;18.49;100.00;102381.41;5112571;27;20038;-44
2023/10/05 10:42:53;;;;;;;0.00;0.00;;;;;;;18.35;100.00;102383.19;5112622;28;20134;-46
2023/10/05 10:45:28;;;;;;;0.00;0.00;;;;;;;18.43;100.00;102382.19;5075110;28;20486;-43
2023/10/05 10:47:57;;;;;;;0.00;0.00;;;;;;;18.36;100.00;102386.75;5112961;28;20024;-46
2023/10/05 10:50:35;;;;;;;0.00;0.00;;;;;;;18.45;100.00;102392.91;5112733;28;20039;-45
2023/10/05 10:53:16;;;;;;;0.00;0.00;;;;;;;18.51;100.00;102392.09;5112371;28;20050;-47
2023/10/05 10:56:03;;;;;;;0.10;0.00;;;;;;;18.49;100.00;102395.03;5112951;28;20019;-44
2023/10/05 10:58:30;;;;;;;0.00;0.00;;;;;;;18.59;100.00;102387.38;5095196;28;20474;-45
2023/10/05 11:01:02;;;;;;;0.00;0.00;;;;;;;18.73;100.00;102385.56;5111853;27;20250;-47
2023/10/05 11:03:30;;;;;;;0.00;0.00;;;;;;;18.99;100.00;102393.13;5113029;28;20393;-45
2023/10/05 11:05:55;;;;;;;;;;;;;;;19.05;100.00;102389.59;5113529;27;20112;-48
2023/10/05 11:08:21;;;;;;;0.00;0.00;;;;;;;19.25;100.00;102394.34;5112550;28;19912;-45
2023/10/05 11:11:06;;;;;;;0.00;0.00;;;;;;;19.45;100.00;102380.78;5111763;28;20215;-44
2023/10/05 11:13:33;;;;;;;0.00;0.00;;;;;;;19.53;100.00;102395.09;5112626;28;20063;-44
2023/10/05 11:15:59;;;;;;;0.00;0.00;;;;;;;19.48;100.00;102389.41;5112483;27;20063;-49
2023/10/05 11:18:38;;;;;;;0.00;0.00;;;;;;;19.32;100.00;102394.38;5093813;28;20024;-47
2023/10/05 11:21:19;;;;;;;0.00;0.00;;;;;;;19.06;100.00;102394.03;5109870;28;20097;-47
2023/10/05 11:23:55;;;;;;;0.00;0.00;;;;;;;18.71;100.00;102393.09;5109148;28;20023;-49
2023/10/05 11:26:33;;;;;;;0.00;0.00;;;;;;;18.78;100.00;102401.38;5111047;28;20054;-45
2023/10/05 11:29:14;;;;;;;0.00;0.00;;;;;;;18.80;100.00;102391.97;5111576;28;20031;-46
2023/10/05 11:31:40;;;;;;;0.00;0.00;;;;;;;18.56;100.00;102393.22;5111850;28;20040;-45
2023/10/05 11:34:09;;;;;;;0.00;0.00;;;;;;;18.57;100.00;102391.34;5112139;28;20119;-42
2023/10/05 11:36:44;;;;;;;0.00;0.00;;;;;;;18.65;100.00;102392.03;5111982;28;20023;-47
2023/10/05 11:39:22;;;;;;;0.00;0.00;;;;;;;19.13;100.00;102391.31;5106445;28;20039;-48
2023/10/05 11:41:48;;;;;;;0.00;0.00;;;;;;;19.64;100.00;102392.81;5092366;28;20108;-43
2023/10/05 11:44:20;;;;;;;0.00;0.00;;;;;;;19.92;100.00;102400.94;5104330;28;20126;-47
2023/10/05 11:46:46;;;;;;;0.00;0.00;;;;;;;19.85;100.00;102406.41;5094209;28;20057;-46
2023/10/05 11:49:13;;;;;;;0.00;0.00;;;;;;;19.47;100.00;102412.28;5111689;28;20070;-44
2023/10/05 11:51:42;;;;;;;0.00;0.00;;;;;;;19.16;100.00;102401.84;5112410;28;20381;-47
2023/10/05 11:54:19;;;;;;;0.00;0.00;;;;;;;19.41;100.00;102394.00;5111307;28;20019;-47
2023/10/05 11:56:46;;;;;;;0.00;0.00;;;;;;;19.64;100.00;102396.41;5111967;28;20055;-47